Time;durP1;ratioP1;P1;durP2;ratioP2;P2;SDS_P1;SDS_P2;PMS_P1;PMS_P2;Temp;Humidity;BMP_temperature;BMP_pressure;BME280_temperature;BME280_humidity;BME280_pressure;Samples;Min_cycle;Max_cycle;Signal;HPM_P1;HPM_P2
2022/07/09 00:01:02;;;;;;;6.70;3.93;;;17.90;99.90;;;;;;4962562;28;20720;-71
2022/07/09 00:03:29;;;;;;;5.30;3.60;;;17.70;99.90;;;;;;4970385;28;20208;-71
2022/07/09 00:05:57;;;;;;;6.63;3.60;;;17.60;99.90;;;;;;4967661;28;20229;-73
2022/07/09 00:08:23;;;;;;;5.37;4.07;;;17.60;99.90;;;;;;4964872;28;20221;-72
2022/07/09 00:10:50;;;;;;;6.63;4.10;;;17.60;99.90;;;;;;4967846;28;20228;-71
2022/07/09 00:13:17;;;;;;;6.40;4.40;;;17.70;99.90;;;;;;4967831;28;20668;-72
2022/07/09 00:15:43;;;;;;;5.70;4.10;;;17.60;99.90;;;;;;4964435;28;20202;-71
2022/07/09 00:18:10;;;;;;;5.97;4.53;;;17.60;99.90;;;;;;4958562;28;20343;-71
2022/07/09 00:20:37;;;;;;;5.80;4.40;;;17.50;99.90;;;;;;4965799;28;20224;-71
2022/07/09 00:23:04;;;;;;;5.57;4.23;;;17.40;99.90;;;;;;4968011;28;20220;-71
2022/07/09 00:25:30;;;;;;;7.70;4.57;;;17.20;99.90;;;;;;4969823;28;20210;-73
2022/07/09 00:27:57;;;;;;;8.33;4.87;;;17.20;99.90;;;;;;4968337;28;20217;-72
2022/07/09 00:30:24;;;;;;;7.70;5.03;;;17.20;99.90;;;;;;4969063;28;20201;-71
2022/07/09 00:32:50;;;;;;;6.97;4.70;;;17.20;99.90;;;;;;4967644;28;20557;-73
2022/07/09 00:35:17;;;;;;;5.80;4.73;;;17.10;99.90;;;;;;4967000;28;20204;-73
2022/07/09 00:37:44;;;;;;;5.40;4.90;;;17.10;99.90;;;;;;4966487;28;20366;-71
2022/07/09 00:40:11;;;;;;;8.47;4.80;;;17.00;99.90;;;;;;4968507;28;20231;-71
2022/07/09 00:42:37;;;;;;;6.60;5.13;;;17.00;99.90;;;;;;4968267;28;20197;-71
2022/07/09 00:45:04;;;;;;;6.37;5.30;;;17.00;99.90;;;;;;4967739;28;20947;-71
2022/07/09 00:47:31;;;;;;;7.57;5.23;;;16.90;99.90;;;;;;4960260;28;20697;-74
2022/07/09 00:49:58;;;;;;;5.37;4.87;;;16.90;99.90;;;;;;4967761;28;20338;-72
2022/07/09 00:52:25;;;;;;;5.37;4.63;;;16.70;99.90;;;;;;4968039;28;20202;-71
2022/07/09 00:54:54;;;;;;;7.27;5.10;;;16.60;99.90;;;;;;4961424;28;20198;-74
2022/07/09 00:57:22;;;;;;;6.43;4.90;;;16.50;99.90;;;;;;4969088;28;20257;-71
2022/07/09 00:59:48;;;;;;;6.80;5.40;;;16.40;99.90;;;;;;4967776;28;20229;-71
2022/07/09 01:02:16;;;;;;;6.23;5.43;;;16.40;99.90;;;;;;4968808;28;20201;-71
2022/07/09 01:04:43;;;;;;;6.87;5.40;;;16.30;99.90;;;;;;4966328;28;20292;-71
2022/07/09 01:07:10;;;;;;;6.90;5.60;;;16.30;99.90;;;;;;4969825;28;20201;-71
2022/07/09 01:09:38;;;;;;;8.93;5.80;;;16.20;99.90;;;;;;4966196;28;20673;-73
2022/07/09 01:12:07;;;;;;;7.17;5.90;;;16.20;99.90;;;;;;4966381;28;20202;-71
2022/07/09 01:14:33;;;;;;;8.60;5.30;;;16.20;99.90;;;;;;4963995;28;20209;-71
2022/07/09 01:17:03;;;;;;;8.17;5.80;;;16.10;99.90;;;;;;4968263;28;20576;-71
2022/07/09 01:19:31;;;;;;;10.57;6.20;;;16.20;99.90;;;;;;4968651;28;20276;-71
2022/07/09 01:21:58;;;;;;;8.90;5.97;;;16.30;99.90;;;;;;4970722;28;20272;-72
2022/07/09 01:24:32;;;;;;;11.03;6.53;;;16.30;99.90;;;;;;4971031;28;20209;-71
2022/07/09 01:27:00;;;;;;;7.33;6.30;;;16.30;99.90;;;;;;4971798;28;20197;-72
2022/07/09 01:29:26;;;;;;;8.07;5.90;;;16.50;99.90;;;;;;4972614;28;20604;-71
2022/07/09 01:31:53;;;;;;;8.70;5.83;;;16.40;99.90;;;;;;4967792;28;20234;-71
2022/07/09 01:34:20;;;;;;;7.30;6.30;;;16.20;99.90;;;;;;4973108;28;20198;-71
2022/07/09 01:36:46;;;;;;;9.40;5.93;;;16.30;99.90;;;;;;4969944;28;20616;-71
2022/07/09 01:39:13;;;;;;;9.53;5.90;;;16.20;99.90;;;;;;4959631;28;20236;-73
2022/07/09 01:41:40;;;;;;;7.90;6.63;;;16.20;99.90;;;;;;4968232;28;20221;-72
2022/07/09 01:44:07;;;;;;;9.13;6.57;;;16.20;99.90;;;;;;4971898;28;20198;-72
2022/07/09 01:46:34;;;;;;;8.40;6.13;;;16.10;99.90;;;;;;4969860;28;20208;-71
2022/07/09 01:49:01;;;;;;;10.07;6.10;;;16.00;99.90;;;;;;4956916;28;20219;-71
2022/07/09 01:51:27;;;;;;;7.73;6.33;;;16.10;99.90;;;;;;4961811;28;20270;-72
2022/07/09 01:53:54;;;;;;;9.63;6.77;;;16.10;99.90;;;;;;4971242;28;20258;-71
2022/07/09 01:56:21;;;;;;;9.53;6.60;;;16.20;99.90;;;;;;4962813;28;20213;-73
2022/07/09 01:58:47;;;;;;;8.20;6.07;;;16.20;99.90;;;;;;4962349;28;20226;-71
2022/07/09 02:01:14;;;;;;;9.23;6.43;;;16.10;99.90;;;;;;4964394;28;20727;-71
2022/07/09 02:03:40;;;;;;;8.27;6.30;;;16.10;99.90;;;;;;4960120;28;20203;-71
2022/07/09 02:06:07;;;;;;;9.27;6.80;;;16.10;99.90;;;;;;4968579;28;20206;-71
2022/07/09 02:08:34;;;;;;;11.70;7.10;;;16.10;99.90;;;;;;4972074;28;20221;-73
2022/07/09 02:11:02;;;;;;;7.57;6.40;;;16.10;99.90;;;;;;4962504;28;20678;-71
2022/07/09 02:13:29;;;;;;;10.30;7.20;;;16.10;99.90;;;;;;4960748;28;20197;-71
2022/07/09 02:15:55;;;;;;;10.37;7.30;;;15.90;99.90;;;;;;4965956;28;20213;-73
2022/07/09 02:18:22;;;;;;;8.73;6.37;;;16.00;99.90;;;;;;4969202;28;20744;-74
2022/07/09 02:20:49;;;;;;;8.67;6.60;;;16.00;99.90;;;;;;4964695;28;20229;-71
2022/07/09 02:23:15;;;;;;;12.90;7.23;;;15.90;99.90;;;;;;4967294;28;20209;-71
2022/07/09 02:25:42;;;;;;;7.80;6.80;;;15.80;99.90;;;;;;4964303;28;20382;-71
2022/07/09 02:28:09;;;;;;;9.53;7.47;;;15.90;99.90;;;;;;4970297;28;20225;-72
2022/07/09 02:30:36;;;;;;;9.63;7.37;;;15.80;99.90;;;;;;4977099;28;20669;-74
2022/07/09 02:33:04;;;;;;;8.07;6.73;;;15.70;99.90;;;;;;4963094;28;20205;-71
2022/07/09 02:35:31;;;;;;;10.60;6.90;;;15.70;99.90;;;;;;4957026;28;20483;-71
2022/07/09 02:37:57;;;;;;;9.40;6.77;;;15.70;99.90;;;;;;4967023;28;20222;-72
2022/07/09 02:40:24;;;;;;;8.23;6.60;;;15.70;99.90;;;;;;4960359;28;20739;-69
2022/07/09 02:42:51;;;;;;;10.90;7.53;;;15.70;99.90;;;;;;4968306;28;20193;-73
2022/07/09 02:45:18;;;;;;;10.63;6.77;;;15.80;99.90;;;;;;4961168;28;20201;-71
2022/07/09 02:47:45;;;;;;;11.93;7.47;;;15.70;99.90;;;;;;4960868;28;20327;-74
2022/07/09 02:50:11;;;;;;;9.17;6.90;;;15.60;99.90;;;;;;4966600;28;20551;-71
2022/07/09 02:52:38;;;;;;;7.53;6.23;;;15.50;99.90;;;;;;4966501;28;20197;-71
2022/07/09 02:55:05;;;;;;;9.20;6.77;;;15.40;99.90;;;;;;4958334;28;20209;-71
2022/07/09 02:57:32;;;;;;;7.67;6.27;;;15.50;99.90;;;;;;4970054;28;20233;-71
2022/07/09 02:59:59;;;;;;;11.20;7.30;;;15.30;99.90;;;;;;4965545;28;20578;-71
2022/07/09 03:02:26;;;;;;;8.37;6.63;;;15.40;99.90;;;;;;4967935;28;20229;-71
2022/07/09 03:04:53;;;;;;;8.07;7.27;;;15.50;99.90;;;;;;4965025;28;20708;-71
2022/07/09 03:07:19;;;;;;;8.50;6.73;;;15.50;99.90;;;;;;4958540;28;20717;-71
2022/07/09 03:09:46;;;;;;;9.40;6.83;;;15.50;99.90;;;;;;4963866;28;20205;-71
2022/07/09 03:12:13;;;;;;;7.57;6.57;;;15.60;99.90;;;;;;4971096;28;20201;-71
2022/07/09 03:14:39;;;;;;;11.70;6.97;;;15.40;99.90;;;;;;4970413;28;20198;-71
2022/07/09 03:17:06;;;;;;;8.73;7.07;;;15.40;99.90;;;;;;4960524;28;20202;-71
2022/07/09 03:19:33;;;;;;;7.57;6.70;;;15.40;99.90;;;;;;4963692;28;20712;-71
2022/07/09 03:21:59;;;;;;;9.67;7.20;;;15.40;99.90;;;;;;4967770;28;20217;-72
2022/07/09 03:24:26;;;;;;;7.57;6.43;;;15.40;99.90;;;;;;4964639;28;20201;-72
2022/07/09 03:26:53;;;;;;;9.93;6.90;;;15.40;99.90;;;;;;4959134;28;20203;-71
2022/07/09 03:29:19;;;;;;;9.30;6.40;;;15.30;99.90;;;;;;4966736;28;20218;-71
2022/07/09 03:31:46;;;;;;;8.40;6.87;;;15.30;99.90;;;;;;4961479;28;20479;-72
2022/07/09 03:34:12;;;;;;;10.37;7.33;;;15.20;99.90;;;;;;4958514;28;20205;-72
2022/07/09 03:36:39;;;;;;;8.73;7.27;;;15.30;99.90;;;;;;4958374;28;20218;-71
2022/07/09 03:39:06;;;;;;;7.90;6.53;;;15.40;99.90;;;;;;4967285;28;20249;-71
2022/07/09 03:41:33;;;;;;;7.73;6.00;;;15.20;99.90;;;;;;4970139;28;20221;-73
2022/07/09 03:43:59;;;;;;;8.07;6.70;;;15.10;99.90;;;;;;4958250;28;20257;-72
2022/07/09 03:46:26;;;;;;;10.23;7.10;;;15.10;99.90;;;;;;4965706;28;20194;-71
2022/07/09 03:48:53;;;;;;;7.67;6.53;;;15.20;99.90;;;;;;4965922;28;20303;-73
2022/07/09 03:51:19;;;;;;;7.70;6.77;;;15.40;99.90;;;;;;4956216;28;20194;-71
2022/07/09 03:53:46;;;;;;;8.57;6.43;;;15.50;99.90;;;;;;4962994;28;20665;-71
2022/07/09 03:56:13;;;;;;;10.13;6.37;;;15.50;99.90;;;;;;4961788;28;20693;-71
2022/07/09 03:58:40;;;;;;;7.17;6.47;;;15.40;99.90;;;;;;4968748;28;20598;-73
2022/07/09 04:01:06;;;;;;;7.90;6.53;;;15.30;99.90;;;;;;4963783;28;20681;-71
2022/07/09 04:03:33;;;;;;;7.67;6.10;;;15.40;99.90;;;;;;4970422;28;20496;-72
2022/07/09 04:06:00;;;;;;;8.57;6.23;;;15.30;99.90;;;;;;4966296;28;20221;-71
2022/07/09 04:08:26;;;;;;;8.23;6.57;;;15.40;99.90;;;;;;4970270;28;20213;-71
2022/07/09 04:10:53;;;;;;;6.57;5.97;;;15.40;99.90;;;;;;4962204;28;20198;-71
2022/07/09 04:13:20;;;;;;;8.60;6.10;;;15.60;99.90;;;;;;4960638;28;20202;-72
2022/07/09 04:15:46;;;;;;;7.87;7.03;;;15.70;99.90;;;;;;4968298;28;20683;-71
2022/07/09 04:18:16;;;;;;;9.10;6.07;;;15.90;99.90;;;;;;4968122;28;20224;-71
2022/07/09 04:20:42;;;;;;;12.60;6.40;;;15.90;99.90;;;;;;4965033;28;20236;-73
2022/07/09 04:23:09;;;;;;;7.10;6.40;;;15.90;99.90;;;;;;4955430;28;20619;-71
2022/07/09 04:25:36;;;;;;;8.17;6.70;;;16.00;99.90;;;;;;4966554;28;20193;-71
2022/07/09 04:28:03;;;;;;;8.20;6.20;;;16.10;99.90;;;;;;4957155;28;20588;-71
2022/07/09 04:30:29;;;;;;;7.57;6.37;;;16.20;99.90;;;;;;4961866;28;20198;-71
2022/07/09 04:32:56;;;;;;;9.97;6.80;;;16.50;99.90;;;;;;4967334;28;20198;-72
2022/07/09 04:35:23;;;;;;;8.03;6.97;;;16.50;99.90;;;;;;4963143;28;20198;-70
2022/07/09 04:37:50;;;;;;;10.63;6.70;;;16.50;99.90;;;;;;4967151;28;20217;-71
2022/07/09 04:40:16;;;;;;;9.20;6.93;;;16.70;99.90;;;;;;4965727;28;20646;-71
2022/07/09 04:42:44;;;;;;;9.70;7.30;;;16.80;99.90;;;;;;4960826;28;20226;-71
2022/07/09 04:45:11;;;;;;;11.10;7.50;;;16.80;99.90;;;;;;4967673;28;20270;-71
2022/07/09 04:47:38;;;;;;;11.43;7.60;;;16.90;99.90;;;;;;4963453;28;20221;-72
2022/07/09 04:50:05;;;;;;;7.97;7.07;;;16.80;99.90;;;;;;4968358;28;20576;-72
2022/07/09 04:52:31;;;;;;;10.63;8.03;;;16.80;99.90;;;;;;4968603;28;20237;-71
2022/07/09 04:54:58;;;;;;;9.93;7.80;;;16.80;99.90;;;;;;4958137;28;20201;-74
2022/07/09 04:57:25;;;;;;;9.50;7.67;;;16.80;99.90;;;;;;4969003;28;20202;-72
2022/07/09 04:59:51;;;;;;;9.20;7.73;;;16.80;99.90;;;;;;4969454;28;20218;-71
2022/07/09 05:02:18;;;;;;;10.77;7.87;;;16.80;99.90;;;;;;4966454;28;20222;-74
2022/07/09 05:04:44;;;;;;;8.27;7.30;;;16.80;99.90;;;;;;4963615;28;20209;-74
2022/07/09 05:07:11;;;;;;;13.63;8.20;;;16.70;99.90;;;;;;4966222;28;20206;-72
2022/07/09 05:09:38;;;;;;;11.30;7.67;;;16.80;99.90;;;;;;4967307;28;20198;-73
2022/07/09 05:12:05;;;;;;;10.90;7.27;;;16.80;99.90;;;;;;4970570;28;20264;-72
2022/07/09 05:14:31;;;;;;;12.37;7.40;;;16.90;99.90;;;;;;4966829;28;20206;-73
2022/07/09 05:16:58;;;;;;;9.10;7.80;;;17.00;99.90;;;;;;4966540;28;20206;-71
2022/07/09 05:19:25;;;;;;;13.80;8.10;;;17.00;99.90;;;;;;4962806;28;20662;-72
2022/07/09 05:21:51;;;;;;;9.93;7.67;;;17.00;99.90;;;;;;4967252;28;20219;-74
2022/07/09 05:24:18;;;;;;;9.37;7.53;;;17.00;99.90;;;;;;4955182;28;20276;-72
2022/07/09 05:26:44;;;;;;;10.43;7.20;;;17.00;99.90;;;;;;4972384;28;20193;-72
2022/07/09 05:29:12;;;;;;;10.30;7.77;;;16.90;99.90;;;;;;4967369;28;20221;-74
2022/07/09 05:31:39;;;;;;;12.57;8.13;;;17.10;99.90;;;;;;4968598;28;20252;-72
2022/07/09 05:34:07;;;;;;;11.43;8.70;;;17.00;99.90;;;;;;4967665;28;20213;-72
2022/07/09 05:36:34;;;;;;;8.47;7.33;;;17.20;99.90;;;;;;4966005;28;20674;-72
2022/07/09 05:39:01;;;;;;;9.70;7.63;;;17.20;99.90;;;;;;4967375;28;20229;-72
2022/07/09 05:41:28;;;;;;;11.63;6.70;;;17.30;99.90;;;;;;4970503;28;20228;-71
2022/07/09 05:43:54;;;;;;;9.23;6.87;;;17.40;99.90;;;;;;4964238;28;20194;-71
2022/07/09 05:46:21;;;;;;;8.33;6.97;;;17.40;99.90;;;;;;4962266;28;20259;-72
2022/07/09 05:48:48;;;;;;;10.53;6.63;;;17.50;99.90;;;;;;4966176;28;20309;-72
2022/07/09 05:51:15;;;;;;;8.33;6.03;;;17.50;99.90;;;;;;4971341;28;20423;-72
2022/07/09 05:53:41;;;;;;;7.60;6.27;;;17.60;99.90;;;;;;4964494;28;20197;-72
2022/07/09 05:56:08;;;;;;;7.87;5.77;;;17.70;99.90;;;;;;4959135;28;20202;-73
2022/07/09 05:58:37;;;;;;;6.20;5.40;;;17.80;99.90;;;;;;4969557;28;20512;-72
2022/07/09 06:01:05;;;;;;;7.03;5.90;;;18.00;99.90;;;;;;4963661;28;20204;-72
2022/07/09 06:03:32;;;;;;;11.50;5.53;;;18.20;99.90;;;;;;4967573;28;20240;-73
2022/07/09 06:05:58;;;;;;;7.03;5.20;;;18.20;99.90;;;;;;4970668;28;20259;-74
2022/07/09 06:08:25;;;;;;;7.93;5.13;;;18.20;99.90;;;;;;4971789;28;20221;-73
2022/07/09 06:10:52;;;;;;;5.60;5.00;;;18.30;99.90;;;;;;4967527;28;20205;-72
2022/07/09 06:13:19;;;;;;;5.93;5.30;;;18.40;99.90;;;;;;4968076;28;20248;-73
2022/07/09 06:15:45;;;;;;;6.23;4.80;;;18.60;99.90;;;;;;4967599;28;20283;-72
2022/07/09 06:18:16;;;;;;;7.07;5.47;;;18.70;99.90;;;;;;4970583;28;20535;-72
2022/07/09 06:20:43;;;;;;;7.57;5.30;;;18.70;99.90;;;;;;4961948;28;20194;-72
2022/07/09 06:23:10;;;;;;;9.67;5.10;;;18.90;99.90;;;;;;4970952;28;20312;-71
2022/07/09 06:25:38;;;;;;;6.53;5.03;;;19.00;99.90;;;;;;4970431;28;20205;-74
2022/07/09 06:28:05;;;;;;;7.77;4.50;;;19.30;99.90;;;;;;4969204;28;20221;-71
2022/07/09 06:30:33;;;;;;;7.50;5.47;;;19.60;99.90;;;;;;4973822;28;20194;-72
2022/07/09 06:33:00;;;;;;;7.53;5.63;;;19.80;99.90;;;;;;4971647;28;20220;-72
2022/07/09 06:35:27;;;;;;;8.00;5.30;;;19.90;99.90;;;;;;4967211;28;20288;-73
2022/07/09 06:37:54;;;;;;;6.80;5.03;;;20.00;99.90;;;;;;4969277;28;20225;-72
2022/07/09 06:40:20;;;;;;;5.17;4.57;;;20.00;99.90;;;;;;4966399;28;20206;-72
2022/07/09 06:42:47;;;;;;;8.90;4.37;;;20.10;99.90;;;;;;4963064;28;20293;-72
2022/07/09 06:45:14;;;;;;;6.50;4.50;;;20.10;99.90;;;;;;4967945;28;20201;-73
2022/07/09 06:47:41;;;;;;;7.57;4.70;;;20.10;99.90;;;;;;4968204;28;20218;-71
2022/07/09 06:50:10;;;;;;;7.80;4.28;;;20.20;99.90;;;;;;4966873;28;20190;-74
2022/07/09 06:52:37;;;;;;;6.30;4.40;;;20.50;99.90;;;;;;4968479;28;20204;-71
2022/07/09 06:55:04;;;;;;;6.43;4.63;;;20.70;99.90;;;;;;4966911;28;20202;-74
2022/07/09 06:57:31;;;;;;;5.82;4.50;;;20.90;99.90;;;;;;4968075;28;20284;-71
2022/07/09 06:59:58;;;;;;;6.47;5.20;;;21.00;99.90;;;;;;4971134;28;20197;-71
2022/07/09 07:02:24;;;;;;;8.75;5.03;;;21.30;99.90;;;;;;4968376;28;20218;-71
2022/07/09 07:04:51;;;;;;;6.65;5.30;;;21.50;99.90;;;;;;4969018;28;20216;-71
2022/07/09 07:07:18;;;;;;;8.13;5.20;;;21.90;99.90;;;;;;4968193;28;20201;-71
2022/07/09 07:09:44;;;;;;;9.63;5.10;;;22.40;99.90;;;;;;4967294;28;20216;-72
2022/07/09 07:12:11;;;;;;;7.93;4.53;;;22.80;99.90;;;;;;4964612;28;20197;-74
2022/07/09 07:14:38;;;;;;;6.65;4.63;;;23.60;99.90;;;;;;4965194;28;20210;-71
2022/07/09 07:17:04;;;;;;;8.00;4.20;;;24.40;99.90;;;;;;4963116;28;20201;-72
2022/07/09 07:19:31;;;;;;;6.97;3.63;;;25.50;99.90;;;;;;4962333;28;20224;-71
2022/07/09 07:21:58;;;;;;;5.70;3.88;;;26.20;99.90;;;;;;4967171;28;20232;-71
2022/07/09 07:24:25;;;;;;;4.88;3.53;;;26.70;99.90;;;;;;4969941;28;20208;-71
2022/07/09 07:26:51;;;;;;;5.20;3.53;;;26.80;99.90;;;;;;4968429;28;20202;-71
2022/07/09 07:29:18;;;;;;;5.00;3.47;;;26.40;99.90;;;;;;4966056;28;20213;-71
2022/07/09 07:31:45;;;;;;;5.20;3.30;;;25.90;99.90;;;;;;4966170;28;20221;-71
2022/07/09 07:34:12;;;;;;;4.93;4.00;;;25.50;99.90;;;;;;4968993;28;20268;-72
2022/07/09 07:36:39;;;;;;;6.30;4.32;;;25.40;99.90;;;;;;4968892;28;20565;-71
2022/07/09 07:39:05;;;;;;;10.13;4.28;;;24.80;99.90;;;;;;4967398;28;20229;-73
2022/07/09 07:41:32;;;;;;;6.55;3.28;;;24.30;99.90;;;;;;4965356;28;20221;-71
2022/07/09 07:43:59;;;;;;;9.57;4.10;;;24.10;99.90;;;;;;4965603;28;20478;-71
2022/07/09 07:46:25;;;;;;;6.85;3.63;;;24.60;99.90;;;;;;4965359;28;20239;-74
2022/07/09 07:48:52;;;;;;;5.78;3.50;;;25.30;99.90;;;;;;4966040;28;20209;-71
2022/07/09 07:51:19;;;;;;;6.07;3.60;;;25.50;99.90;;;;;;4968065;28;20590;-71
2022/07/09 07:53:45;;;;;;;7.85;3.28;;;26.10;99.90;;;;;;4968022;28;20200;-72
2022/07/09 07:56:12;;;;;;;5.53;3.30;;;26.50;99.90;;;;;;4966165;28;20190;-72
2022/07/09 07:58:39;;;;;;;5.63;3.65;;;27.10;99.90;;;;;;4967235;28;20213;-71
2022/07/09 08:01:05;;;;;;;4.55;3.30;;;27.80;99.90;;;;;;4960158;28;20277;-71
2022/07/09 08:03:32;;;;;;;6.43;3.90;;;27.90;99.90;;;;;;4963463;28;20704;-73
2022/07/09 08:06:00;;;;;;;6.30;3.45;;;27.50;99.90;;;;;;4956042;28;20204;-72
2022/07/09 08:08:27;;;;;;;5.72;3.35;;;27.60;99.90;;;;;;4966580;28;20719;-73
2022/07/09 08:10:53;;;;;;;4.90;2.90;;;27.80;99.90;;;;;;4960870;28;20190;-72
2022/07/09 08:13:20;;;;;;;4.60;3.35;;;27.40;99.90;;;;;;4968456;28;20193;-72
2022/07/09 08:15:47;;;;;;;4.65;2.80;;;27.30;99.90;;;;;;4965204;28;20642;-71
2022/07/09 08:18:14;;;;;;;5.68;3.20;;;27.20;99.90;;;;;;4959761;28;20222;-73
2022/07/09 08:20:42;;;;;;;6.07;3.17;;;26.90;99.90;;;;;;4961443;28;20217;-73
2022/07/09 08:23:09;;;;;;;7.93;2.47;;;26.70;99.90;;;;;;4957553;28;20228;-73
2022/07/09 08:25:36;;;;;;;4.57;2.80;;;26.40;99.90;;;;;;4963041;28;20198;-72
2022/07/09 08:28:03;;;;;;;4.05;2.90;;;26.80;99.90;;;;;;4964351;28;20610;-74
2022/07/09 08:30:30;;;;;;;4.80;2.83;;;26.90;99.90;;;;;;4961701;28;20199;-73
2022/07/09 08:32:56;;;;;;;4.50;3.03;;;26.80;99.90;;;;;;4962504;28;20198;-73
2022/07/09 08:35:25;;;;;;;5.15;2.70;;;26.40;99.90;;;;;;4969735;28;20209;-74
2022/07/09 08:37:52;;;;;;;3.50;2.53;;;26.00;99.90;;;;;;4972755;28;20256;-74
2022/07/09 08:40:19;;;;;;;4.95;2.72;;;25.20;99.90;;;;;;4966878;28;20205;-75
2022/07/09 08:42:49;;;;;;;4.78;2.78;;;24.60;99.90;;;;;;4965963;28;20637;-73
2022/07/09 08:45:18;;;;;;;3.20;2.70;;;24.60;99.90;;;;;;4968750;28;20197;-73
2022/07/09 08:47:45;;;;;;;4.18;2.60;;;24.70;99.90;;;;;;4960015;28;20595;-76
2022/07/09 08:50:12;;;;;;;5.40;2.60;;;24.90;99.90;;;;;;4967571;28;20216;-79
2022/07/09 08:52:40;;;;;;;3.75;2.30;;;25.20;99.90;;;;;;4968118;28;20252;-79
2022/07/09 08:55:08;;;;;;;6.45;2.42;;;25.50;99.90;;;;;;4974313;28;20207;-79
2022/07/09 08:57:35;;;;;;;2.15;1.95;;;25.80;99.90;;;;;;4966123;28;20218;-73
2022/07/09 09:00:04;;;;;;;2.60;1.88;;;26.10;99.90;;;;;;4969898;28;20216;-74
2022/07/09 09:02:36;;;;;;;5.03;2.15;;;26.30;99.90;;;;;;4971411;28;20222;-73
2022/07/09 09:05:14;;;;;;;2.10;1.90;;;26.40;99.90;;;;;;4963402;28;20206;-76
2022/07/09 09:07:42;;;;;;;2.38;2.00;;;26.40;99.90;;;;;;4967153;28;20294;-74
2022/07/09 09:10:20;;;;;;;4.82;1.63;;;26.80;99.90;;;;;;4972141;28;20198;-75
2022/07/09 09:12:46;;;;;;;3.08;1.90;;;26.50;99.90;;;;;;4962672;28;20209;-73
2022/07/09 09:15:17;;;;;;;3.85;1.70;;;25.30;99.90;;;;;;4970556;28;20469;-75
2022/07/09 09:17:44;;;;;;;5.45;2.25;;;25.20;99.90;;;;;;4967834;28;20225;-76
2022/07/09 09:20:15;;;;;;;2.67;2.13;;;25.00;99.90;;;;;;4970926;28;20208;-75
2022/07/09 09:22:49;;;;;;;4.60;1.98;;;24.60;99.90;;;;;;4967189;28;20217;-74
2022/07/09 09:25:18;;;;;;;3.75;2.35;;;24.40;99.90;;;;;;4963121;28;20201;-72
2022/07/09 09:27:58;;;;;;;2.67;2.13;;;24.40;99.90;;;;;;4966797;28;20218;-73
2022/07/09 09:30:28;;;;;;;3.45;1.83;;;24.60;99.90;;;;;;4958363;28;20562;-74
2022/07/09 09:32:56;;;;;;;2.10;1.48;;;25.10;99.90;;;;;;4982124;28;20210;-74
2022/07/09 09:35:27;;;;;;;2.95;1.40;;;25.40;99.90;;;;;;4965929;28;20696;-71
2022/07/09 09:37:55;;;;;;;4.03;1.58;;;25.80;99.90;;;;;;4969465;28;20712;-71
2022/07/09 09:40:23;;;;;;;3.10;1.30;;;25.80;99.90;;;;;;4966355;28;20661;-71
2022/07/09 09:42:50;;;;;;;2.22;1.15;;;25.90;99.90;;;;;;4963743;28;20638;-71
2022/07/09 09:45:23;;;;;;;1.20;1.05;;;25.70;99.90;;;;;;4972423;28;20288;-71
2022/07/09 09:47:51;;;;;;;3.47;1.40;;;25.80;99.90;;;;;;4969851;28;20217;-71
2022/07/09 09:50:20;;;;;;;3.63;1.50;;;26.10;99.90;;;;;;4972548;28;20732;-72
2022/07/09 09:52:48;;;;;;;6.13;1.48;;;25.80;99.90;;;;;;4966537;28;20658;-71
2022/07/09 09:55:16;;;;;;;2.13;1.60;;;25.80;99.90;;;;;;4966766;28;20206;-72
2022/07/09 09:57:44;;;;;;;2.88;2.40;;;25.80;99.90;;;;;;4968166;28;20623;-71
2022/07/09 10:00:12;;;;;;;2.55;1.83;;;25.60;99.90;;;;;;4967064;28;20210;-71
2022/07/09 10:02:43;;;;;;;3.08;2.10;;;25.40;99.90;;;;;;4967984;28;20262;-71
2022/07/09 10:05:10;;;;;;;2.05;1.80;;;25.20;99.90;;;;;;4969987;28;20216;-72
2022/07/09 10:07:37;;;;;;;2.30;1.80;;;25.20;99.90;;;;;;4963406;28;20214;-71
2022/07/09 10:10:06;;;;;;;3.25;2.13;;;25.50;99.90;;;;;;4964785;28;21869;-71
2022/07/09 10:12:40;;;;;;;1.98;1.80;;;25.80;99.90;;;;;;4969110;28;20579;-72
2022/07/09 10:15:27;;;;;;;2.78;2.00;;;25.80;99.90;;;;;;4967820;28;20209;-70
2022/07/09 10:17:55;;;;;;;3.40;2.00;;;26.10;99.90;;;;;;4966010;28;20240;-71
2022/07/09 10:20:33;;;;;;;3.40;1.77;;;26.20;99.90;;;;;;4967658;28;20285;-71
2022/07/09 10:23:01;;;;;;;5.22;3.15;;;26.40;99.90;;;;;;4966782;28;20599;-75
2022/07/09 10:25:30;;;;;;;2.47;2.00;;;26.30;99.90;;;;;;4961854;28;20194;-75
2022/07/09 10:27:57;;;;;;;3.17;2.10;;;26.30;99.90;;;;;;4970751;28;20213;-72
2022/07/09 10:30:28;;;;;;;3.22;1.95;;;25.90;99.90;;;;;;4967970;28;20749;-72
2022/07/09 10:33:08;;;;;;;3.00;2.03;;;25.90;99.90;;;;;;4963678;28;20202;-73
2022/07/09 10:35:43;;;;;;;5.43;1.90;;;26.10;99.90;;;;;;4968548;28;20217;-74
2022/07/09 10:38:11;;;;;;;5.53;1.83;;;26.20;99.90;;;;;;4966168;28;20227;-74
2022/07/09 10:40:46;;;;;;;3.03;2.10;;;26.50;99.90;;;;;;4961012;28;20600;-72
2022/07/09 10:43:13;;;;;;;3.00;1.70;;;27.00;99.90;;;;;;4966430;28;20225;-73
2022/07/09 10:45:44;;;;;;;1.80;1.70;;;27.10;99.90;;;;;;4970921;28;20201;-73
2022/07/09 10:48:14;;;;;;;2.67;1.80;;;27.00;99.90;;;;;;4952217;28;20250;-72
2022/07/09 10:50:48;;;;;;;4.10;2.28;;;26.80;99.90;;;;;;4953216;28;20210;-72
2022/07/09 10:53:17;;;;;;;3.63;2.20;;;26.70;99.90;;;;;;4960167;28;20201;-70
2022/07/09 10:55:45;;;;;;;2.50;1.80;;;26.60;99.90;;;;;;4955229;28;20206;-73
2022/07/09 10:58:19;;;;;;;2.67;1.83;;;26.80;99.90;;;;;;4958727;28;20229;-74
2022/07/09 11:00:55;;;;;;;2.42;2.05;;;27.20;99.90;;;;;;4965989;28;20206;-75
2022/07/09 11:03:26;;;;;;;2.10;1.90;;;26.70;99.90;;;;;;4960951;28;20225;-72
2022/07/09 11:05:52;;;;;;;2.40;2.00;;;26.80;99.90;;;;;;4961590;28;20206;-73
2022/07/09 11:08:19;;;;;;;4.72;2.00;;;27.20;99.90;;;;;;4963401;28;20214;-73
2022/07/09 11:10:46;;;;;;;2.55;2.10;;;27.30;99.90;;;;;;4956507;28;20202;-73
2022/07/09 11:13:17;;;;;;;5.05;2.30;;;27.50;99.90;;;;;;4954429;28;20211;-73
2022/07/09 11:15:44;;;;;;;2.30;2.10;;;27.40;99.90;;;;;;4956494;28;20194;-74
2022/07/09 11:18:13;;;;;;;4.38;2.40;;;27.50;99.90;;;;;;4955559;28;20218;-73
2022/07/09 11:20:45;;;;;;;2.58;2.22;;;27.50;99.90;;;;;;4954972;28;20226;-76
2022/07/09 11:23:16;;;;;;;2.00;1.88;;;27.70;99.90;;;;;;4957410;28;20315;-73
2022/07/09 11:25:45;;;;;;;3.35;2.10;;;27.90;99.90;;;;;;4952222;28;20209;-73
2022/07/09 11:28:26;;;;;;;3.13;1.70;;;27.90;99.90;;;;;;4956294;28;20225;-72
2022/07/09 11:31:04;;;;;;;2.60;1.85;;;27.40;99.90;;;;;;4959779;28;20194;-73
2022/07/09 11:36:18;;;;;;;4.00;2.40;;;27.40;99.90;;;;;;4959327;28;20213;-73
2022/07/09 11:38:49;;;;;;;1.67;1.50;;;28.00;99.90;;;;;;4960584;28;20228;-74
2022/07/09 11:41:16;;;;;;;3.53;1.90;;;28.20;99.90;;;;;;4954849;28;20202;-73
2022/07/09 11:43:50;;;;;;;2.55;1.80;;;28.70;99.90;;;;;;4956993;28;20458;-74
2022/07/09 11:46:18;;;;;;;2.70;1.60;;;29.10;99.90;;;;;;4955180;28;20206;-73
2022/07/09 11:48:52;;;;;;;2.70;1.80;;;29.00;99.90;;;;;;4955341;28;20710;-74
2022/07/09 11:51:32;;;;;;;1.77;1.67;;;29.00;99.90;;;;;;4961474;28;20217;-73
2022/07/09 11:54:00;;;;;;;1.67;1.50;;;28.70;99.90;;;;;;4959898;28;20547;-73
2022/07/09 11:56:26;;;;;;;2.88;1.67;;;28.70;99.90;;;;;;4965732;28;20201;-73
2022/07/09 11:58:54;;;;;;;2.00;1.80;;;29.00;99.90;;;;;;4961951;28;20706;-73
2022/07/09 12:01:23;;;;;;;2.10;1.90;;;28.80;99.90;;;;;;4962297;28;20202;-73
2022/07/09 12:03:50;;;;;;;3.78;2.10;;;28.50;99.90;;;;;;4959971;28;20255;-72
2022/07/09 12:06:17;;;;;;;3.05;2.00;;;27.90;99.90;;;;;;4965509;28;20308;-73
2022/07/09 12:08:44;;;;;;;4.43;2.13;;;27.50;99.90;;;;;;4954957;28;20333;-72
2022/07/09 12:11:10;;;;;;;1.67;1.58;;;27.40;99.90;;;;;;4961580;28;20202;-73
2022/07/09 12:13:37;;;;;;;2.70;1.83;;;27.40;99.90;;;;;;4963865;28;20280;-72
2022/07/09 12:16:04;;;;;;;2.00;1.70;;;27.40;99.90;;;;;;4969120;28;20201;-72
2022/07/09 12:18:31;;;;;;;2.30;1.70;;;27.60;99.90;;;;;;4964154;28;20237;-72
2022/07/09 12:20:58;;;;;;;3.22;1.77;;;27.90;99.90;;;;;;4963881;28;20239;-71
2022/07/09 12:23:24;;;;;;;2.20;1.70;;;28.00;99.90;;;;;;4966610;28;20218;-73
2022/07/09 12:25:51;;;;;;;2.78;1.70;;;28.10;99.90;;;;;;4963819;28;20205;-72
2022/07/09 12:28:18;;;;;;;2.50;1.90;;;28.50;99.90;;;;;;4962254;28;20232;-73
2022/07/09 12:30:44;;;;;;;1.80;1.70;;;28.90;99.90;;;;;;4963773;28;20193;-71
2022/07/09 12:33:11;;;;;;;3.03;1.90;;;28.80;99.90;;;;;;4968285;28;20197;-72
2022/07/09 12:35:38;;;;;;;2.92;1.40;;;28.90;99.90;;;;;;4961363;28;20197;-73
2022/07/09 12:38:04;;;;;;;1.45;1.35;;;29.10;99.90;;;;;;4963457;28;20574;-73
2022/07/09 12:40:31;;;;;;;1.52;1.23;;;29.30;99.90;;;;;;4961478;28;20213;-72
2022/07/09 12:42:58;;;;;;;3.85;1.63;;;29.30;99.40;;;;;;4967281;28;20701;-71
2022/07/09 12:45:24;;;;;;;1.67;1.58;;;28.70;99.90;;;;;;4959662;28;20201;-72
2022/07/09 12:47:52;;;;;;;1.77;1.60;;;28.50;99.90;;;;;;4966693;28;20217;-71
2022/07/09 12:50:18;;;;;;;3.08;1.73;;;28.60;99.90;;;;;;4969072;28;20197;-71